createdAt,value
2019-04-01T00:00:59.296Z,15.57
2019-04-01T00:03:29.174Z,16.73
2019-04-01T00:05:58.765Z,17.13
2019-04-01T00:08:28.372Z,26.40
2019-04-01T00:10:57.982Z,20.40
2019-04-01T00:13:27.609Z,25.53
2019-04-01T00:15:57.236Z,24.50
2019-04-01T00:18:26.830Z,23.83
2019-04-01T00:20:56.451Z,23.83
2019-04-01T00:23:26.041Z,22.40
2019-04-01T00:25:55.662Z,19.20
2019-04-01T00:28:25.326Z,18.13
2019-04-01T00:30:54.949Z,19.63
2019-04-01T00:33:24.533Z,19.10
2019-04-01T00:35:54.159Z,21.27
2019-04-01T00:38:23.752Z,17.37
2019-04-01T00:40:53.412Z,20.70
2019-04-01T00:43:24.695Z,15.03
2019-04-01T00:45:55.905Z,19.90
2019-04-01T00:48:25.493Z,17.60
2019-04-01T00:50:55.117Z,17.00
2019-04-01T00:53:24.705Z,20.70
2019-04-01T00:55:54.396Z,17.27
2019-04-01T00:58:23.992Z,19.93
2019-04-01T01:00:53.612Z,17.20
2019-04-01T01:03:23.203Z,13.97
2019-04-01T01:05:52.829Z,19.33
2019-04-01T01:08:22.419Z,17.83
2019-04-01T01:10:52.006Z,18.30
2019-04-01T01:13:21.631Z,17.10
2019-04-01T01:15:51.220Z,19.13
2019-04-01T01:18:20.847Z,17.47
2019-04-01T01:20:50.459Z,19.27
2019-04-01T01:23:20.080Z,21.50
2019-04-01T01:25:49.675Z,21.30
2019-04-01T01:28:19.286Z,21.50
2019-04-01T01:30:48.974Z,19.27
2019-04-01T01:33:18.592Z,26.53
2019-04-01T01:35:48.183Z,17.00
2019-04-01T01:38:17.807Z,21.33
2019-04-01T01:40:47.404Z,18.13
2019-04-01T01:43:17.021Z,19.03
2019-04-01T01:45:46.629Z,21.50
2019-04-01T01:48:16.219Z,18.63
2019-04-01T01:50:45.838Z,18.37
2019-04-01T01:53:15.453Z,21.63
2019-04-01T01:55:45.072Z,18.53
2019-04-01T01:58:14.767Z,21.03
2019-04-01T02:00:44.397Z,24.13
2019-04-01T02:03:13.986Z,27.07
2019-04-01T02:05:43.688Z,27.33
2019-04-01T02:08:13.279Z,21.77
2019-04-01T02:10:43.014Z,25.93
2019-04-01T02:13:12.615Z,21.90
2019-04-01T02:15:42.241Z,19.90
2019-04-01T02:18:11.829Z,17.23
2019-04-01T02:20:41.423Z,20.63
2019-04-01T02:23:11.044Z,21.43
2019-04-01T02:25:40.643Z,21.43
2019-04-01T02:28:10.289Z,21.07
2019-04-01T02:30:39.877Z,19.87
2019-04-01T02:33:09.492Z,17.50
2019-04-01T02:35:39.114Z,16.47
2019-04-01T02:38:08.728Z,17.00
2019-04-01T02:40:38.390Z,15.73
2019-04-01T02:43:09.616Z,17.43
2019-04-01T02:45:39.215Z,18.27
2019-04-01T02:48:08.827Z,19.73
2019-04-01T02:50:38.485Z,15.10
2019-04-01T02:53:08.083Z,21.03
2019-04-01T02:55:37.682Z,19.07
2019-04-01T02:58:07.304Z,22.17
2019-04-01T03:00:36.914Z,18.83
2019-04-01T03:03:06.532Z,17.43
2019-04-01T03:05:36.519Z,21.33
2019-04-01T03:08:06.147Z,18.90
2019-04-01T03:10:35.847Z,21.20
2019-04-01T03:13:05.456Z,21.50
2019-04-01T03:15:35.057Z,21.37
2019-04-01T03:18:04.793Z,21.97
2019-04-01T03:20:35.024Z,18.93
2019-04-01T03:23:05.320Z,20.03
2019-04-01T03:25:35.434Z,22.57
2019-04-01T03:28:05.097Z,20.10
2019-04-01T03:30:34.757Z,19.70
2019-04-01T03:33:04.351Z,20.80
2019-04-01T03:35:33.971Z,17.40
2019-04-01T03:38:03.670Z,19.20
2019-04-01T03:40:33.289Z,18.13
2019-04-01T03:43:02.984Z,17.50
2019-04-01T03:45:32.601Z,19.33
2019-04-01T03:48:02.297Z,24.23
2019-04-01T03:50:32.017Z,17.03
2019-04-01T03:53:01.603Z,19.17
2019-04-01T03:55:31.199Z,25.73
2019-04-01T03:58:00.817Z,23.93
2019-04-01T04:00:30.411Z,23.60
2019-04-01T04:03:00.034Z,18.57
2019-04-01T04:05:29.881Z,23.10
2019-04-01T04:07:59.575Z,17.63
2019-04-01T04:10:29.180Z,19.50
2019-04-01T04:12:58.782Z,21.87
2019-04-01T04:15:28.532Z,20.23
2019-04-01T04:17:58.227Z,23.57
2019-04-01T04:20:27.843Z,22.97
2019-04-01T04:22:57.515Z,23.17
2019-04-01T04:25:27.511Z,23.03
2019-04-01T04:27:57.245Z,21.23
2019-04-01T04:30:27.016Z,22.70
2019-04-01T04:32:56.670Z,18.23
2019-04-01T04:35:26.263Z,21.80
2019-04-01T04:37:55.963Z,21.30
2019-04-01T04:40:25.585Z,17.73
2019-04-01T04:42:55.201Z,24.13
2019-04-01T04:45:24.802Z,22.27
2019-04-01T04:47:54.522Z,17.03
2019-04-01T04:50:24.125Z,21.20
2019-04-01T04:52:53.722Z,20.00
2019-04-01T04:55:23.370Z,18.07
2019-04-01T04:57:53.058Z,19.20
2019-04-01T05:00:22.829Z,19.03
2019-04-01T05:02:52.527Z,19.23
2019-04-01T05:05:22.219Z,18.77
2019-04-01T05:07:53.444Z,24.77
2019-04-01T05:10:23.077Z,28.23
2019-04-01T05:12:52.658Z,37.23
2019-04-01T05:15:22.282Z,40.10
2019-04-01T05:17:51.880Z,52.97
2019-04-01T05:20:21.493Z,21.13
2019-04-01T05:22:51.817Z,18.00
2019-04-01T05:25:21.758Z,18.77
2019-04-01T05:27:54.234Z,20.40
2019-04-01T05:30:23.823Z,24.37
2019-04-01T05:32:56.165Z,19.13
2019-04-01T05:35:26.776Z,22.53
2019-04-01T05:37:56.996Z,25.13
2019-04-01T05:40:27.766Z,28.97
2019-04-01T05:42:57.634Z,29.23
2019-04-01T05:45:27.229Z,32.53
2019-04-01T05:47:57.850Z,29.20
2019-04-01T05:50:27.727Z,20.20
2019-04-01T05:52:57.476Z,24.97
2019-04-01T05:55:27.248Z,25.30
2019-04-01T05:57:57.002Z,28.80
2019-04-01T06:00:31.342Z,27.90
2019-04-01T06:03:01.032Z,62.43
2019-04-01T06:05:30.724Z,85.40
2019-04-01T06:08:00.522Z,66.20
2019-04-01T06:10:30.213Z,46.20
2019-04-01T06:13:00.238Z,26.57
2019-04-01T06:15:29.978Z,34.47
2019-04-01T06:17:59.791Z,44.90
2019-04-01T06:20:29.451Z,22.87
2019-04-01T06:22:59.605Z,21.07
2019-04-01T06:25:29.227Z,17.33
2019-04-01T06:27:58.893Z,24.43
2019-04-01T06:30:28.593Z,23.53
2019-04-01T06:32:58.439Z,24.60
2019-04-01T06:35:28.058Z,20.67
2019-04-01T06:37:57.658Z,23.83
2019-04-01T06:40:27.347Z,23.67
2019-04-01T06:42:56.955Z,27.23
2019-04-01T06:45:26.888Z,27.43
2019-04-01T06:47:56.513Z,27.30
2019-04-01T06:50:26.175Z,25.07
2019-04-01T06:52:56.019Z,31.50
2019-04-01T06:55:25.614Z,26.67
2019-04-01T06:57:55.539Z,27.83
2019-04-01T07:00:25.320Z,26.90
2019-04-01T07:02:55.098Z,28.60
2019-04-01T07:05:24.709Z,25.20
2019-04-01T07:07:54.576Z,24.40
2019-04-01T07:10:24.948Z,34.83
2019-04-01T07:12:54.833Z,29.60
2019-04-01T07:15:24.435Z,33.03
2019-04-01T07:17:54.341Z,26.40
2019-04-01T07:20:23.940Z,31.17
2019-04-01T07:22:53.610Z,24.97
2019-04-01T07:25:23.477Z,30.97
2019-04-01T07:27:53.168Z,32.63
2019-04-01T07:30:22.975Z,31.03
2019-04-01T07:32:52.671Z,49.50
2019-04-01T07:35:22.541Z,37.27
2019-04-01T07:37:52.709Z,32.40
2019-04-01T07:40:22.337Z,45.60
2019-04-01T07:42:53.130Z,49.63
2019-04-01T07:45:22.919Z,74.90
2019-04-01T07:47:52.854Z,60.73
2019-04-01T07:50:22.555Z,52.77
2019-04-01T07:52:55.304Z,63.07
2019-04-01T07:55:24.008Z,50.40
2019-04-01T07:57:53.709Z,64.60
2019-04-01T08:00:23.619Z,61.40
2019-04-01T08:02:53.488Z,59.97
2019-04-01T08:05:25.840Z,65.80
2019-04-01T08:07:54.953Z,53.17
2019-04-01T08:10:24.568Z,49.67
2019-04-01T08:12:54.330Z,63.07
2019-04-01T08:15:23.925Z,65.80
2019-04-01T08:17:53.622Z,41.10
2019-04-01T08:20:23.329Z,40.87
2019-04-01T08:22:52.925Z,57.47
2019-04-01T08:25:22.847Z,58.53
2019-04-01T08:27:52.559Z,47.83
2019-04-01T08:30:22.369Z,54.50
2019-04-01T08:33:02.012Z,58.57
2019-04-01T08:35:31.856Z,37.33
2019-04-01T08:38:01.463Z,37.47
2019-04-01T08:40:31.163Z,32.53
2019-04-01T08:43:00.788Z,41.33
2019-04-01T08:45:30.421Z,36.07
2019-04-01T08:48:00.238Z,40.10
2019-04-01T08:50:29.875Z,29.43
2019-04-01T08:52:59.481Z,28.30
2019-04-01T08:55:29.325Z,33.67
2019-04-01T08:57:58.950Z,33.73
2019-04-01T09:00:28.585Z,29.53
2019-04-01T09:02:58.254Z,31.23
2019-04-01T09:05:28.765Z,30.87
2019-04-01T09:07:59.411Z,21.97
2019-04-01T09:10:29.181Z,24.60
2019-04-01T09:12:59.852Z,28.00
2019-04-01T09:15:29.453Z,26.47
2019-04-01T09:17:59.077Z,28.27
2019-04-01T09:20:28.678Z,21.83
2019-04-01T09:22:59.364Z,37.50
2019-04-01T09:25:29.120Z,25.03
2019-04-01T09:27:58.717Z,28.10
2019-04-01T09:30:28.418Z,25.20
2019-04-01T09:32:58.016Z,36.13
2019-04-01T09:35:27.648Z,29.77
2019-04-01T09:37:57.248Z,24.73
2019-04-01T09:40:26.950Z,22.63
2019-04-01T09:42:56.584Z,29.97
2019-04-01T09:45:26.215Z,23.67
2019-04-01T09:47:55.808Z,26.10
2019-04-01T09:50:25.437Z,30.20
2019-04-01T09:52:55.119Z,27.63
2019-04-01T09:55:24.741Z,27.97
2019-04-01T09:57:54.375Z,30.70
2019-04-01T10:00:24.205Z,27.20
2019-04-01T10:02:53.846Z,30.53
2019-04-01T10:05:23.441Z,26.20
2019-04-01T10:07:53.082Z,27.17
2019-04-01T10:10:22.904Z,25.57
2019-04-01T10:12:52.522Z,28.33
2019-04-01T10:15:22.262Z,29.30
2019-04-01T10:17:51.899Z,24.33
2019-04-01T10:20:21.663Z,25.20
2019-04-01T10:22:51.265Z,24.53
2019-04-01T10:25:20.893Z,26.70
2019-04-01T10:27:50.664Z,39.03
2019-04-01T10:30:22.504Z,28.45
2019-04-01T10:32:52.173Z,30.65
2019-04-01T10:35:22.320Z,26.30
2019-04-01T10:37:51.964Z,40.03
2019-04-01T10:40:21.699Z,27.10
2019-04-01T10:42:51.297Z,29.80
2019-04-01T10:45:21.324Z,29.00
2019-04-01T10:47:50.963Z,27.93
2019-04-01T10:50:20.790Z,31.70
2019-04-01T10:52:50.454Z,32.73
2019-04-01T10:55:20.219Z,27.13
2019-04-01T11:00:34.632Z,31.55
2019-04-01T11:03:06.221Z,37.60
2019-04-01T11:05:35.719Z,30.05
2019-04-01T11:08:05.478Z,24.85
2019-04-01T11:10:35.166Z,23.73
2019-04-01T11:13:04.794Z,23.65
2019-04-01T11:15:34.420Z,22.93
2019-04-01T11:18:04.047Z,22.65
2019-04-01T11:20:33.653Z,22.43
2019-04-01T11:23:05.006Z,31.93
2019-04-01T11:25:34.776Z,25.27
2019-04-01T11:28:04.522Z,24.55
2019-04-01T11:30:36.947Z,24.98
2019-04-01T11:33:07.709Z,26.48
2019-04-01T11:35:37.053Z,27.43
2019-04-01T11:38:06.703Z,21.05
2019-04-01T11:40:38.781Z,19.60
2019-04-01T11:43:07.728Z,21.20
2019-04-01T11:45:37.329Z,20.40
2019-04-01T11:48:06.955Z,28.32
2019-04-01T11:50:36.525Z,31.02
2019-04-01T11:53:06.344Z,24.75
2019-04-01T11:55:36.763Z,22.82
2019-04-01T11:58:06.446Z,23.05
2019-04-01T12:00:36.073Z,18.73
2019-04-01T12:03:05.816Z,24.35
2019-04-01T12:05:35.440Z,22.67
2019-04-01T12:08:05.169Z,23.52
2019-04-01T12:10:34.917Z,23.05
2019-04-01T12:13:04.973Z,24.70
2019-04-01T12:15:34.601Z,27.32
2019-04-01T12:18:04.374Z,24.70
2019-04-01T12:20:34.000Z,24.20
2019-04-01T12:23:03.631Z,21.50
2019-04-01T12:25:33.523Z,23.00
2019-04-01T12:28:03.229Z,27.05
2019-04-01T12:30:32.832Z,21.93
2019-04-01T12:33:02.703Z,23.55
2019-04-01T12:35:32.341Z,28.10
2019-04-01T12:38:02.013Z,21.85
2019-04-01T12:40:31.652Z,23.98
2019-04-01T12:43:01.254Z,24.15
2019-04-01T12:45:30.858Z,23.10
2019-04-01T12:48:00.486Z,25.23
2019-04-01T12:50:30.181Z,24.37
2019-04-01T12:52:59.786Z,25.47
2019-04-01T12:55:29.417Z,30.47
2019-04-01T12:57:59.105Z,26.37
2019-04-01T13:00:29.282Z,26.07
2019-04-01T13:02:59.022Z,25.87
2019-04-01T13:05:28.631Z,27.13
2019-04-01T13:07:58.266Z,27.37
2019-04-01T13:10:27.874Z,23.35
2019-04-01T13:12:57.479Z,26.37
2019-04-01T13:15:27.114Z,24.92
2019-04-01T13:17:56.739Z,25.40
2019-04-01T13:20:37.755Z,24.82
2019-04-01T13:22:57.744Z,24.95
2019-04-01T13:25:27.365Z,22.70
2019-04-01T13:27:57.249Z,27.70
2019-04-01T13:30:27.209Z,21.97
2019-04-01T13:32:56.809Z,23.03
2019-04-01T13:35:26.428Z,24.13
2019-04-01T13:37:56.034Z,20.93
2019-04-01T13:40:25.741Z,21.57
2019-04-01T13:42:55.374Z,22.37
2019-04-01T13:45:31.175Z,22.22
2019-04-01T13:47:56.362Z,24.25
2019-04-01T13:50:26.032Z,20.97
2019-04-01T13:52:55.658Z,27.53
2019-04-01T13:55:25.258Z,27.20
2019-04-01T13:57:54.894Z,23.53
2019-04-01T14:00:27.411Z,31.27
2019-04-01T14:02:55.904Z,21.23
2019-04-01T14:05:25.507Z,24.80
2019-04-01T14:07:55.138Z,27.43
2019-04-01T14:10:24.898Z,23.27
2019-04-01T14:12:54.748Z,22.52
2019-04-01T14:15:24.345Z,23.62
2019-04-01T14:17:53.972Z,24.13
2019-04-01T14:20:23.574Z,21.97
2019-04-01T14:22:54.753Z,20.33
2019-04-01T14:25:24.349Z,22.00
2019-04-01T14:27:53.949Z,23.83
2019-04-01T14:30:23.582Z,21.83
2019-04-01T14:32:53.182Z,34.23
2019-04-01T14:35:23.863Z,17.20
2019-04-01T14:37:53.697Z,18.60
2019-04-01T14:40:23.331Z,17.30
2019-04-01T14:42:52.972Z,18.77
2019-04-01T14:45:22.607Z,17.73
2019-04-01T14:47:57.649Z,21.40
2019-04-01T14:50:23.525Z,23.40
2019-04-01T14:52:53.144Z,23.43
2019-04-01T14:55:22.768Z,23.47
2019-04-01T14:57:52.396Z,21.73
2019-04-01T15:00:22.277Z,18.57
2019-04-01T15:02:51.912Z,26.70
2019-04-01T15:05:21.512Z,24.13
2019-04-01T15:07:51.136Z,21.23
2019-04-01T15:10:21.366Z,24.80
2019-04-01T15:13:04.541Z,23.03
2019-04-01T15:15:22.480Z,23.67
2019-04-01T15:17:52.110Z,23.03
2019-04-01T15:20:21.933Z,23.38
2019-04-01T15:22:52.407Z,26.80
2019-04-01T15:25:22.951Z,24.90
2019-04-01T15:27:52.586Z,27.90
2019-04-01T15:30:22.187Z,27.82
2019-04-01T15:32:52.162Z,29.43
2019-04-01T15:35:21.986Z,26.73
2019-04-01T15:37:52.152Z,26.00
2019-04-01T15:40:22.060Z,29.40
2019-04-01T15:42:51.684Z,25.57
2019-04-01T15:45:21.353Z,25.13
2019-04-01T15:47:50.980Z,26.10
2019-04-01T15:50:28.271Z,29.73
2019-04-01T15:52:52.031Z,24.47
2019-04-01T15:55:21.703Z,24.77
2019-04-01T15:57:51.339Z,26.10
2019-04-01T16:00:21.642Z,27.97
2019-04-01T16:02:51.271Z,25.53
2019-04-01T16:05:20.940Z,25.90
2019-04-01T16:07:50.566Z,24.53
2019-04-01T16:10:21.127Z,27.63
2019-04-01T16:12:50.977Z,26.77
2019-04-01T16:15:20.644Z,23.57
2019-04-01T16:17:53.611Z,31.83
2019-04-01T16:20:21.685Z,26.63
2019-04-01T16:22:51.280Z,27.00
2019-04-01T16:25:20.917Z,29.67
2019-04-01T16:27:50.535Z,29.33
2019-04-01T16:30:20.133Z,33.47
2019-04-01T16:32:49.762Z,27.07
2019-04-01T16:35:19.363Z,26.50
2019-04-01T16:37:48.964Z,29.03
2019-04-01T16:40:18.764Z,33.03
2019-04-01T16:42:48.479Z,27.60
2019-04-01T16:45:18.248Z,25.23
2019-04-01T16:47:48.550Z,29.70
2019-04-01T16:50:18.568Z,27.20
2019-04-01T16:52:48.264Z,25.87
2019-04-01T16:55:18.778Z,29.87
2019-04-01T16:57:48.549Z,25.03
2019-04-01T17:00:19.181Z,29.27
2019-04-01T17:02:50.086Z,27.97
2019-04-01T17:05:27.197Z,31.77
2019-04-01T17:07:56.797Z,25.43
2019-04-01T17:10:27.036Z,25.00
2019-04-01T17:12:56.656Z,27.17
2019-04-01T17:15:26.328Z,27.53
2019-04-01T17:17:55.957Z,27.13
2019-04-01T17:20:25.592Z,26.60
2019-04-01T17:22:55.194Z,26.57
2019-04-01T17:25:26.147Z,24.53
2019-04-01T17:27:56.069Z,25.07
2019-04-01T17:30:25.740Z,25.13
2019-04-01T17:32:55.365Z,24.83
2019-04-01T17:35:24.962Z,23.97
2019-04-01T17:37:54.657Z,24.73
2019-04-01T17:40:24.285Z,31.17
2019-04-01T17:42:53.884Z,32.60
2019-04-01T17:45:33.846Z,29.07
2019-04-01T17:48:04.603Z,26.47
2019-04-01T17:50:35.172Z,28.23
2019-04-01T17:53:07.786Z,30.77
2019-04-01T17:55:37.453Z,25.60
2019-04-01T17:58:07.798Z,28.93
2019-04-01T18:00:39.174Z,29.10
2019-04-01T18:03:09.475Z,29.50
2019-04-01T18:05:39.301Z,36.97
2019-04-01T18:08:09.003Z,29.07
2019-04-01T18:10:38.597Z,29.87
2019-04-01T18:13:08.231Z,30.37
2019-04-01T18:15:37.964Z,37.10
2019-04-01T18:18:07.594Z,60.53
2019-04-01T18:20:37.218Z,32.83
2019-04-01T18:23:06.820Z,31.43
2019-04-01T18:25:36.513Z,31.50
2019-04-01T18:28:06.114Z,31.47
2019-04-01T18:30:35.879Z,36.37
2019-04-01T18:33:05.573Z,37.80
2019-04-01T18:35:35.336Z,32.07
2019-04-01T18:38:04.936Z,44.43
2019-04-01T18:40:35.826Z,45.20
2019-04-01T18:43:05.544Z,44.60
2019-04-01T18:45:35.177Z,50.17
2019-04-01T18:48:04.878Z,46.63
2019-04-01T18:50:34.488Z,53.70
2019-04-01T18:53:04.182Z,47.10
2019-04-01T18:55:34.282Z,41.63
2019-04-01T18:58:03.955Z,41.33
2019-04-01T19:00:33.621Z,38.37
2019-04-01T19:03:03.248Z,36.93
2019-04-01T19:05:32.917Z,36.67
2019-04-01T19:08:04.184Z,37.37
2019-04-01T19:10:34.019Z,42.27
2019-04-01T19:13:06.167Z,40.17
2019-04-01T19:15:35.949Z,42.83
2019-04-01T19:18:06.348Z,38.37
2019-04-01T19:20:35.951Z,52.73
2019-04-01T19:23:05.645Z,44.47
2019-04-01T19:25:35.273Z,43.67
2019-04-01T19:28:04.893Z,47.80
2019-04-01T19:30:34.520Z,34.73
2019-04-01T19:33:06.664Z,40.60
2019-04-01T19:35:35.471Z,34.83
2019-04-01T19:38:07.161Z,36.67
2019-04-01T19:40:36.521Z,33.57
2019-04-01T19:43:06.218Z,36.10
2019-04-01T19:45:36.029Z,33.07
2019-04-01T19:48:05.722Z,35.63
2019-04-01T19:50:35.437Z,31.67
2019-04-01T19:53:05.127Z,30.83
2019-04-01T19:55:34.757Z,37.23
2019-04-01T19:58:05.204Z,35.63
2019-04-01T20:00:35.179Z,38.47
2019-04-01T20:03:04.865Z,38.50
2019-04-01T20:05:34.570Z,39.17
2019-04-01T20:08:04.237Z,34.77
2019-04-01T20:10:34.138Z,29.60
2019-04-01T20:13:03.753Z,32.60
2019-04-01T20:15:33.373Z,36.23
2019-04-01T20:18:03.005Z,29.70
2019-04-01T20:20:32.614Z,35.77
2019-04-01T20:23:02.250Z,33.50
2019-04-01T20:25:31.849Z,34.73
2019-04-01T20:28:01.545Z,35.93
2019-04-01T20:30:31.215Z,33.33
2019-04-01T20:33:00.836Z,34.97
2019-04-01T20:35:30.532Z,34.30
2019-04-01T20:38:00.200Z,35.90
2019-04-01T20:40:29.821Z,35.20
2019-04-01T20:42:59.424Z,31.87
2019-04-01T20:45:29.141Z,34.60
2019-04-01T20:47:58.773Z,31.70
2019-04-01T20:50:28.541Z,33.67
2019-04-01T20:52:58.150Z,30.23
2019-04-01T20:55:27.766Z,34.13
2019-04-01T20:57:57.366Z,34.97
2019-04-01T21:00:26.989Z,46.93
2019-04-01T21:02:56.587Z,40.50
2019-04-01T21:05:26.209Z,33.07
2019-04-01T21:07:55.827Z,36.97
2019-04-01T21:10:25.449Z,36.57
2019-04-01T21:12:55.042Z,41.63
2019-04-01T21:15:24.659Z,34.83
2019-04-01T21:17:54.283Z,36.50
2019-04-01T21:20:23.974Z,34.87
2019-04-01T21:22:53.563Z,37.27
2019-04-01T21:25:23.191Z,35.10
2019-04-01T21:27:53.165Z,32.47
2019-04-01T21:30:23.319Z,30.30
2019-04-01T21:32:52.911Z,40.40
2019-04-01T21:35:22.548Z,31.87
2019-04-01T21:37:52.140Z,37.47
2019-04-01T21:40:21.750Z,31.73
2019-04-01T21:42:51.517Z,43.83
2019-04-01T21:45:21.561Z,35.37
2019-04-01T21:47:51.183Z,36.07
2019-04-01T21:50:20.976Z,39.13
2019-04-01T21:52:50.567Z,33.90
2019-04-01T21:55:20.191Z,33.40
2019-04-01T21:57:51.160Z,30.53
2019-04-01T22:00:39.172Z,40.83
2019-04-01T22:03:09.013Z,32.23
2019-04-01T22:05:38.672Z,33.07
2019-04-01T22:08:08.276Z,41.73
2019-04-01T22:10:37.898Z,39.90
2019-04-01T22:13:07.523Z,32.70
2019-04-01T22:15:37.110Z,37.40
2019-04-01T22:18:06.935Z,34.07
2019-04-01T22:20:36.620Z,32.60
2019-04-01T22:23:06.341Z,37.03
2019-04-01T22:25:36.215Z,32.63
2019-04-01T22:28:06.042Z,33.47
2019-04-01T22:30:35.663Z,32.50
2019-04-01T22:33:05.352Z,32.30
2019-04-01T22:35:39.065Z,41.67
2019-04-01T22:38:06.618Z,36.63
2019-04-01T22:40:36.291Z,33.37
2019-04-01T22:43:05.953Z,33.83
2019-04-01T22:45:35.574Z,33.57
2019-04-01T22:48:05.255Z,32.63
2019-04-01T22:50:34.858Z,32.87
2019-04-01T22:53:04.926Z,34.43
2019-04-01T22:55:34.551Z,36.13
2019-04-01T22:58:04.234Z,35.17
2019-04-01T23:00:33.822Z,32.97
2019-04-01T23:03:03.510Z,38.40
2019-04-01T23:05:33.138Z,33.43
2019-04-01T23:08:02.829Z,31.93
2019-04-01T23:10:32.399Z,39.93
2019-04-01T23:13:02.026Z,34.90
2019-04-01T23:15:31.617Z,36.90
2019-04-01T23:18:01.211Z,34.43
2019-04-01T23:20:30.831Z,37.30
2019-04-01T23:23:00.424Z,39.20
2019-04-01T23:25:30.045Z,39.47
2019-04-01T23:27:59.636Z,42.33
2019-04-01T23:30:29.256Z,34.73
2019-04-01T23:32:58.844Z,31.70
2019-04-01T23:35:28.471Z,33.87
2019-04-01T23:37:58.062Z,35.13
2019-04-01T23:40:27.659Z,30.77
2019-04-01T23:42:57.666Z,34.63
2019-04-01T23:45:27.547Z,31.87
2019-04-01T23:47:57.236Z,33.43
2019-04-01T23:50:26.826Z,31.33
2019-04-01T23:52:56.454Z,30.60
2019-04-01T23:55:26.119Z,35.80
2019-04-01T23:57:55.735Z,33.30
